sensor_id;sensor_type;location;lat;lon;timestamp;pressure;altitude;pressure_sealevel;temperature;humidity
84703;BME280;74927;50.988;11.318;2023-12-20T16:25:55;98603.72;;;6.20;73.33
84703;BME280;74927;50.988;11.318;2023-12-20T16:28:21;98601.16;;;6.20;73.51
84703;BME280;74927;50.988;11.318;2023-12-20T16:30:47;98604.59;;;6.21;73.46
84703;BME280;74927;50.988;11.318;2023-12-20T16:33:13;98595.91;;;6.17;73.50
84703;BME280;74927;50.988;11.318;2023-12-20T16:35:39;98611.41;;;6.17;73.33
84703;BME280;74927;50.988;11.318;2023-12-20T16:38:04;98595.91;;;6.17;73.36
84703;BME280;74927;50.988;11.318;2023-12-20T16:40:30;98594.22;;;6.18;73.34
84703;BME280;74927;50.988;11.318;2023-12-20T16:42:55;98596.09;;;6.27;72.48
84703;BME280;74927;50.988;11.318;2023-12-20T16:45:24;98602.00;;;6.21;73.21
84703;BME280;74927;50.988;11.318;2023-12-20T16:47:49;98591.72;;;6.22;73.18
84703;BME280;74927;50.988;11.318;2023-12-20T16:50:15;98590.81;;;6.20;73.00
84703;BME280;74927;50.988;11.318;2023-12-20T16:52:41;98585.63;;;6.19;73.19
84703;BME280;74927;50.988;11.318;2023-12-20T16:55:10;98586.41;;;6.15;73.42
84703;BME280;74927;50.988;11.318;2023-12-20T16:57:37;98581.13;;;6.09;73.83
84703;BME280;74927;50.988;11.318;2023-12-20T17:00:03;98578.53;;;6.07;73.67
84703;BME280;74927;50.988;11.318;2023-12-20T17:02:29;98580.28;;;6.08;73.60
84703;BME280;74927;50.988;11.318;2023-12-20T17:04:55;98580.19;;;6.05;74.13
84703;BME280;74927;50.988;11.318;2023-12-20T17:07:20;98569.28;;;6.18;73.30
84703;BME280;74927;50.988;11.318;2023-12-20T17:09:46;98585.56;;;6.14;73.57
84703;BME280;74927;50.988;11.318;2023-12-20T17:12:12;98559.75;;;6.14;73.39
84703;BME280;74927;50.988;11.318;2023-12-20T17:14:39;98561.47;;;6.15;73.90
84703;BME280;74927;50.988;11.318;2023-12-20T17:17:04;98564.88;;;6.13;73.52
84703;BME280;74927;50.988;11.318;2023-12-20T17:19:30;98573.41;;;6.09;73.90
84703;BME280;74927;50.988;11.318;2023-12-20T17:21:57;98569.16;;;6.12;73.90
84703;BME280;74927;50.988;11.318;2023-12-20T17:24:22;98561.47;;;6.14;73.48
84703;BME280;74927;50.988;11.318;2023-12-20T17:26:48;98569.09;;;6.09;73.81
84703;BME280;74927;50.988;11.318;2023-12-20T17:29:13;98563.97;;;6.11;73.91
84703;BME280;74927;50.988;11.318;2023-12-20T17:31:39;98566.69;;;6.18;73.86
84703;BME280;74927;50.988;11.318;2023-12-20T17:34:06;98557.19;;;6.17;73.87
84703;BME280;74927;50.988;11.318;2023-12-20T17:36:34;98578.78;;;6.19;73.57
84703;BME280;74927;50.988;11.318;2023-12-20T17:39:00;98563.28;;;6.19;74.33
84703;BME280;74927;50.988;11.318;2023-12-20T17:41:25;98565.09;;;6.23;74.18
84703;BME280;74927;50.988;11.318;2023-12-20T17:43:50;98564.94;;;6.17;73.97
84703;BME280;74927;50.988;11.318;2023-12-20T17:46:16;98566.94;;;6.31;73.80
84703;BME280;74927;50.988;11.318;2023-12-20T17:48:41;98560.84;;;6.27;74.04
84703;BME280;74927;50.988;11.318;2023-12-20T17:51:07;98563.50;;;6.32;74.36
84703;BME280;74927;50.988;11.318;2023-12-20T17:53:32;98567.66;;;6.23;74.61
84703;BME280;74927;50.988;11.318;2023-12-20T17:55:58;98562.50;;;6.23;74.75
84703;BME280;74927;50.988;11.318;2023-12-20T17:58:23;98576.44;;;6.33;74.65
84703;BME280;74927;50.988;11.318;2023-12-20T18:00:49;98563.44;;;6.29;74.63
84703;BME280;74927;50.988;11.318;2023-12-20T18:03:14;98565.25;;;6.34;74.62
84703;BME280;74927;50.988;11.318;2023-12-20T18:05:40;98556.72;;;6.37;74.66
84703;BME280;74927;50.988;11.318;2023-12-20T18:08:05;98566.94;;;6.31;75.19
84703;BME280;74927;50.988;11.318;2023-12-20T18:10:31;98563.44;;;6.29;75.30
84703;BME280;74927;50.988;11.318;2023-12-20T18:12:56;98563.41;;;6.26;75.29
84703;BME280;74927;50.988;11.318;2023-12-20T18:15:21;98556.63;;;6.31;74.88
84703;BME280;74927;50.988;11.318;2023-12-20T18:17:47;98554.78;;;6.27;75.31
84703;BME280;74927;50.988;11.318;2023-12-20T18:20:13;98559.03;;;6.23;75.67
84703;BME280;74927;50.988;11.318;2023-12-20T18:22:39;98552.09;;;6.20;76.00
84703;BME280;74927;50.988;11.318;2023-12-20T18:25:07;98551.16;;;6.17;75.82
84703;BME280;74927;50.988;11.318;2023-12-20T18:27:33;98556.38;;;6.18;76.16
84703;BME280;74927;50.988;11.318;2023-12-20T18:29:59;98563.28;;;6.19;76.20
84703;BME280;74927;50.988;11.318;2023-12-20T18:32:33;98559.81;;;6.19;76.44
84703;BME280;74927;50.988;11.318;2023-12-20T18:35:00;98561.50;;;6.17;76.55
84703;BME280;74927;50.988;11.318;2023-12-20T18:37:26;98553.75;;;6.17;76.78
84703;BME280;74927;50.988;11.318;2023-12-20T18:39:52;98564.03;;;6.15;76.54
84703;BME280;74927;50.988;11.318;2023-12-20T18:42:17;98564.06;;;6.17;76.97
84703;BME280;74927;50.988;11.318;2023-12-20T18:44:43;98569.09;;;6.09;77.27
84703;BME280;74927;50.988;11.318;2023-12-20T18:47:08;98567.38;;;6.10;77.27
84703;BME280;74927;50.988;11.318;2023-12-20T18:49:34;98571.75;;;6.12;77.21
84703;BME280;74927;50.988;11.318;2023-12-20T18:51:59;98570.91;;;6.15;77.40
84703;BME280;74927;50.988;11.318;2023-12-20T18:54:25;98557.94;;;6.12;77.20
84703;BME280;74927;50.988;11.318;2023-12-20T18:56:50;98562.34;;;6.16;76.73
84703;BME280;74927;50.988;11.318;2023-12-20T18:59:17;98557.13;;;6.13;77.40
84703;BME280;74927;50.988;11.318;2023-12-20T19:01:45;98548.56;;;6.15;76.74
84703;BME280;74927;50.988;11.318;2023-12-20T19:04:10;98552.03;;;6.17;76.44
84703;BME280;74927;50.988;11.318;2023-12-20T19:06:36;98538.22;;;6.14;76.94
84703;BME280;74927;50.988;11.318;2023-12-20T19:09:01;98544.25;;;6.14;76.56
84703;BME280;74927;50.988;11.318;2023-12-20T19:11:27;98561.47;;;6.15;76.94
84703;BME280;74927;50.988;11.318;2023-12-20T19:13:52;98541.81;;;6.22;75.92
84703;BME280;74927;50.988;11.318;2023-12-20T19:16:18;98544.28;;;6.17;76.33
84703;BME280;74927;50.988;11.318;2023-12-20T19:18:43;98539.22;;;6.22;75.82
84703;BME280;74927;50.988;11.318;2023-12-20T19:21:12;98532.34;;;6.22;75.79
84703;BME280;74927;50.988;11.318;2023-12-20T19:23:37;98537.50;;;6.22;75.58
84703;BME280;74927;50.988;11.318;2023-12-20T19:26:11;98530.63;;;6.23;75.75
84703;BME280;74927;50.988;11.318;2023-12-20T19:28:37;98527.97;;;6.18;76.26
84703;BME280;74927;50.988;11.318;2023-12-20T19:31:05;98512.63;;;6.26;75.31
84703;BME280;74927;50.988;11.318;2023-12-20T19:33:36;98518.69;;;6.28;74.96
84703;BME280;74927;50.988;11.318;2023-12-20T19:36:02;98508.28;;;6.23;75.55
84703;BME280;74927;50.988;11.318;2023-12-20T19:38:28;98514.34;;;6.26;75.66
84703;BME280;74927;50.988;11.318;2023-12-20T19:40:53;98515.16;;;6.25;75.82
84703;BME280;74927;50.988;11.318;2023-12-20T19:43:19;98505.69;;;6.23;76.09
84703;BME280;74927;50.988;11.318;2023-12-20T19:45:44;98518.63;;;6.23;76.05
84703;BME280;74927;50.988;11.318;2023-12-20T19:48:10;98514.16;;;6.16;76.59
84703;BME280;74927;50.988;11.318;2023-12-20T19:50:35;98499.56;;;6.18;76.38
84703;BME280;74927;50.988;11.318;2023-12-20T19:53:01;98509.09;;;6.22;76.01
84703;BME280;74927;50.988;11.318;2023-12-20T19:55:26;98498.81;;;6.24;76.45
84703;BME280;74927;50.988;11.318;2023-12-20T19:57:52;98500.53;;;6.23;76.08
84703;BME280;74927;50.988;11.318;2023-12-20T20:00:19;98503.91;;;6.21;76.34
84703;BME280;74927;50.988;11.318;2023-12-20T20:02:45;98492.91;;;6.30;75.91
84703;BME280;74927;50.988;11.318;2023-12-20T20:05:10;98500.56;;;6.27;76.23
84703;BME280;74927;50.988;11.318;2023-12-20T20:07:36;98486.75;;;6.23;75.79
84703;BME280;74927;50.988;11.318;2023-12-20T20:10:01;98491.94;;;6.25;76.55
84703;BME280;74927;50.988;11.318;2023-12-20T20:12:27;98474.78;;;6.28;75.97
84703;BME280;74927;50.988;11.318;2023-12-20T20:14:52;98474.75;;;6.25;76.09
84703;BME280;74927;50.988;11.318;2023-12-20T20:17:18;98479.19;;;6.34;75.69
84703;BME280;74927;50.988;11.318;2023-12-20T20:19:44;98469.72;;;6.33;75.62
84703;BME280;74927;50.988;11.318;2023-12-20T20:22:10;98476.53;;;6.29;75.97
84703;BME280;74927;50.988;11.318;2023-12-20T20:24:37;98471.44;;;6.34;75.63
84703;BME280;74927;50.988;11.318;2023-12-20T20:27:03;98472.34;;;6.36;75.45
84703;BME280;74927;50.988;11.318;2023-12-20T20:29:29;98467.91;;;6.27;75.82
84703;BME280;74927;50.988;11.318;2023-12-20T20:31:54;98473.09;;;6.30;75.74
84703;BME280;74927;50.988;11.318;2023-12-20T20:34:20;98473.16;;;6.33;75.47
84703;BME280;74927;50.988;11.318;2023-12-20T20:36:46;98468.97;;;6.40;75.10
84703;BME280;74927;50.988;11.318;2023-12-20T20:39:16;98462.88;;;6.35;75.56
84703;BME280;74927;50.988;11.318;2023-12-20T20:41:44;98479.13;;;6.29;75.57
84703;BME280;74927;50.988;11.318;2023-12-20T20:44:10;98455.97;;;6.35;75.46
84703;BME280;74927;50.988;11.318;2023-12-20T20:46:44;98453.47;;;6.40;75.35
84703;BME280;74927;50.988;11.318;2023-12-20T20:49:10;98464.66;;;6.39;74.98
84703;BME280;74927;50.988;11.318;2023-12-20T20:51:35;98455.97;;;6.35;75.46
84703;BME280;74927;50.988;11.318;2023-12-20T20:54:01;98443.91;;;6.34;75.29
84703;BME280;74927;50.988;11.318;2023-12-20T20:56:28;98434.34;;;6.29;75.51
84703;BME280;74927;50.988;11.318;2023-12-20T20:58:54;98445.59;;;6.32;75.55
84703;BME280;74927;50.988;11.318;2023-12-20T21:01:19;98430.06;;;6.29;75.77
84703;BME280;74927;50.988;11.318;2023-12-20T21:03:44;98433.47;;;6.28;75.55
84703;BME280;74927;50.988;11.318;2023-12-20T21:06:10;98408.53;;;6.27;76.33
84703;BME280;74927;50.988;11.318;2023-12-20T21:08:36;98404.91;;;6.17;76.96
84703;BME280;74927;50.988;11.318;2023-12-20T21:11:01;98411.81;;;6.18;76.89
84703;BME280;74927;50.988;11.318;2023-12-20T21:13:27;98416.22;;;6.24;76.52
84703;BME280;74927;50.988;11.318;2023-12-20T21:15:54;98402.34;;;6.19;76.88
84703;BME280;74927;50.988;11.318;2023-12-20T21:18:19;98382.63;;;6.22;76.79
84703;BME280;74927;50.988;11.318;2023-12-20T21:20:45;98388.59;;;6.20;76.79
84703;BME280;74927;50.988;11.318;2023-12-20T21:23:13;98379.94;;;6.16;77.36
84703;BME280;74927;50.988;11.318;2023-12-20T21:25:38;98377.44;;;6.22;77.38
84703;BME280;74927;50.988;11.318;2023-12-20T21:28:04;98374.78;;;6.16;77.25
84703;BME280;74927;50.988;11.318;2023-12-20T21:30:30;98375.59;;;6.14;77.47
84703;BME280;74927;50.988;11.318;2023-12-20T21:32:59;98367.22;;;6.29;76.70
84703;BME280;74927;50.988;11.318;2023-12-20T21:35:25;98355.09;;;6.25;77.47
84703;BME280;74927;50.988;11.318;2023-12-20T21:37:50;98347.34;;;6.21;77.33
84703;BME280;74927;50.988;11.318;2023-12-20T21:40:15;98335.31;;;6.23;77.09
84703;BME280;74927;50.988;11.318;2023-12-20T21:42:41;98330.16;;;6.23;76.91
84703;BME280;74927;50.988;11.318;2023-12-20T21:45:07;98326.78;;;6.28;76.68
84703;BME280;74927;50.988;11.318;2023-12-20T21:47:36;98314.72;;;6.28;76.76
84703;BME280;74927;50.988;11.318;2023-12-20T21:50:01;98326.94;;;6.38;75.90
84703;BME280;74927;50.988;11.318;2023-12-20T21:52:27;98323.47;;;6.38;76.21
84703;BME280;74927;50.988;11.318;2023-12-20T21:54:52;98307.09;;;6.36;76.52
84703;BME280;74927;50.988;11.318;2023-12-20T21:57:18;98306.19;;;6.34;76.27
84703;BME280;74927;50.988;11.318;2023-12-20T21:59:43;98314.84;;;6.37;76.14
84703;BME280;74927;50.988;11.318;2023-12-20T22:02:09;98292.47;;;6.38;75.95
84703;BME280;74927;50.988;11.318;2023-12-20T22:04:34;98283.94;;;6.40;75.85
84703;BME280;74927;50.988;11.318;2023-12-20T22:06:59;98277.84;;;6.37;76.11
84703;BME280;74927;50.988;11.318;2023-12-20T22:09:25;98285.50;;;6.31;76.48
84703;BME280;74927;50.988;11.318;2023-12-20T22:11:50;98289.75;;;6.29;76.61
84703;BME280;74927;50.988;11.318;2023-12-20T22:14:16;98280.38;;;6.34;75.81
84703;BME280;74927;50.988;11.318;2023-12-20T22:16:41;98265.78;;;6.36;76.63
84703;BME280;74927;50.988;11.318;2023-12-20T22:19:07;98270.06;;;6.35;76.34
84703;BME280;74927;50.988;11.318;2023-12-20T22:21:35;98257.09;;;6.29;76.73
84703;BME280;74927;50.988;11.318;2023-12-20T22:24:01;98256.28;;;6.33;76.36
84703;BME280;74927;50.988;11.318;2023-12-20T22:26:27;98239.13;;;6.40;76.27
84703;BME280;74927;50.988;11.318;2023-12-20T22:28:53;98240.84;;;6.36;76.17
84703;BME280;74927;50.988;11.318;2023-12-20T22:31:18;98233.19;;;6.44;75.49
84703;BME280;74927;50.988;11.318;2023-12-20T22:33:43;98222.03;;;6.47;75.55
84703;BME280;74927;50.988;11.318;2023-12-20T22:36:10;98226.28;;;6.43;75.83
84703;BME280;74927;50.988;11.318;2023-12-20T22:38:35;98218.59;;;6.46;75.54
84703;BME280;74927;50.988;11.318;2023-12-20T22:41:01;98230.63;;;6.47;75.51
84703;BME280;74927;50.988;11.318;2023-12-20T22:43:26;98216.84;;;6.47;75.40
84703;BME280;74927;50.988;11.318;2023-12-20T22:45:52;98217.69;;;6.46;75.79
84703;BME280;74927;50.988;11.318;2023-12-20T22:48:19;98219.53;;;6.54;74.98
84703;BME280;74927;50.988;11.318;2023-12-20T22:50:44;98210.94;;;6.55;75.05
84703;BME280;74927;50.988;11.318;2023-12-20T22:53:10;98204.91;;;6.55;75.47
84703;BME280;74927;50.988;11.318;2023-12-20T22:55:35;98207.50;;;6.56;75.53
84703;BME280;74927;50.988;11.318;2023-12-20T22:58:01;98202.31;;;6.53;75.37
84703;BME280;74927;50.988;11.318;2023-12-20T23:00:26;98197.16;;;6.56;75.62
84703;BME280;74927;50.988;11.318;2023-12-20T23:02:52;98186.06;;;6.64;75.56
84703;BME280;74927;50.988;11.318;2023-12-20T23:05:18;98186.03;;;6.60;75.78
84703;BME280;74927;50.988;11.318;2023-12-20T23:07:44;98179.09;;;6.56;75.84
84703;BME280;74927;50.988;11.318;2023-12-20T23:10:09;98176.47;;;6.52;75.91
84703;BME280;74927;50.988;11.318;2023-12-20T23:12:35;98173.94;;;6.56;76.31
84703;BME280;74927;50.988;11.318;2023-12-20T23:15:02;98180.88;;;6.59;76.14
84703;BME280;74927;50.988;11.318;2023-12-20T23:17:27;98167.03;;;6.54;76.57
84703;BME280;74927;50.988;11.318;2023-12-20T23:19:52;98168.84;;;6.63;76.36
84703;BME280;74927;50.988;11.318;2023-12-20T23:22:18;98178.28;;;6.62;75.92
84703;BME280;74927;50.988;11.318;2023-12-20T23:24:43;98171.44;;;6.63;76.06
84703;BME280;74927;50.988;11.318;2023-12-20T23:27:09;98180.03;;;6.61;76.10
84703;BME280;74927;50.988;11.318;2023-12-20T23:29:34;98166.28;;;6.63;75.99
84703;BME280;74927;50.988;11.318;2023-12-20T23:32:00;98163.75;;;6.69;75.45
84703;BME280;74927;50.988;11.318;2023-12-20T23:34:25;98153.41;;;6.67;76.05
84703;BME280;74927;50.988;11.318;2023-12-20T23:36:51;98149.88;;;6.62;76.18
84703;BME280;74927;50.988;11.318;2023-12-20T23:39:16;98147.34;;;6.65;76.01
84703;BME280;74927;50.988;11.318;2023-12-20T23:41:43;98138.69;;;6.61;76.11
84703;BME280;74927;50.988;11.318;2023-12-20T23:44:08;98129.25;;;6.65;75.78
84703;BME280;74927;50.988;11.318;2023-12-20T23:46:34;98140.50;;;6.69;75.26
84703;BME280;74927;50.988;11.318;2023-12-20T23:48:59;98116.34;;;6.65;75.55
84703;BME280;74927;50.988;11.318;2023-12-20T23:51:25;98119.84;;;6.69;75.07
84703;BME280;74927;50.988;11.318;2023-12-20T23:53:50;98129.28;;;6.67;75.63
84703;BME280;74927;50.988;11.318;2023-12-20T23:56:15;98115.50;;;6.68;75.60
84703;BME280;74927;50.988;11.318;2023-12-20T23:58:41;98113.00;;;6.77;74.79
